Adak, Alaska
Current Conditions -  °F | °C
As of 4:16 PM on Thursday 20 Nov 2014 (Local Time) from PADK Reporting Station
Overcast Overcast  
Wind Chill: 32°   Ceiling: 3300
Heat Index: 39°   Visibility: 10mi
Dew Point: 34°   Wind: 10mph
Humidity: 81%   Direction: 20°NNE
Pressure: 28.88"   Gusts: NA
Location:  51.88°N, 176.66°W
Report Text: PADK 210216Z AUTO 02009KT 10SM FEW020 SCT025 OVC033 04/01 A2888 RMK AO1
Loading
Personal Weather Stations






























Interactive Weather Map New forecast layout! Learn more

10-Day Weather Forecast

Advertisements
Track Severe Weather on mobile